PWSweather.com
Personal Weather Stations
Station Observations
KOHAVON11
Long Road Station, Avon, OH 44011

Long Road StationAvon, OH 44011

Lat: 41.437, Lon: -82.0477

Elevation: 686

Station Type: Davis Vantage Pro2

http://www.avon-weather.com

Latest ConditionsUpdated 7:52:25 PM EDT Tuesday, Oct 21, 2014
Currently Today's Max Today's Min Today's Average
Temperature 46.4°F8.0°C 52.8°F11.6°C 46.2°F7.9°C 49.5°F9.7°C
Dew Point 43.3°F6.3°C 49.9°F9.9°C 42.6°F5.9°C 45.9°F7.7°C
Winds 1.0 mph NNW1.6 kmh NNW 19.0 mph N30.6 kmh N - 2.4 mph 3.9 kmh
Wind Gusts 11.0 mph17.7 kmh 20.0 mph32.2 kmh - -
Humidity 89% 90% 83% 88%
Pressure 30.06 in1017.9 mb 30.06 in1017.9 mb 29.82 in1009.8 mb -
Precipitation - 0.23 in5.8 mm - -
Hour Temp Dew Point Humidity Winds Wind Gusts Pressure Precip Precip Rate Daily Precip Total
07:52 PM 46.4°F8.0°C 43.3°F6.3°C 89% 1.0 mph NNW1.6 kmh NNW 11.0 mph17.7 kmh 30.06 in1017.9 mb 0.04 in1.0 mm 0.00 in/hr0.0 mm/hr 0.23 in5.8 mm
07:47 PM 46.3°F7.9°C 43.2°F6.2°C 89% 5.0 mph NW8.0 kmh NW 12.0 mph19.3 kmh 30.06 in1017.9 mb 0.04 in1.0 mm 0.48 in/hr12.2 mm/hr 0.23 in5.8 mm
07:42 PM 46.3°F7.9°C 43.2°F6.2°C 89% 3.0 mph NW4.8 kmh NW 12.0 mph19.3 kmh 30.06 in1017.9 mb 0.00 in0.0 mm 0.00 in/hr0.0 mm/hr 0.22 in5.6 mm
07:37 PM 46.3°F7.9°C 43.2°F6.2°C 89% 6.0 mph NW9.7 kmh NW 15.0 mph24.1 kmh 30.06 in1017.9 mb 0.00 in0.0 mm 0.00 in/hr0.0 mm/hr 0.22 in5.6 mm
07:32 PM 46.3°F7.9°C 43.2°F6.2°C 89% 3.0 mph NW4.8 kmh NW 15.0 mph24.1 kmh 30.06 in1017.9 mb 0.00 in0.0 mm 0.00 in/hr0.0 mm/hr 0.22 in5.6 mm
07:27 PM 46.2°F7.9°C 42.8°F6.0°C 88% 9.0 mph W14.5 kmh W 15.0 mph24.1 kmh 30.06 in1017.9 mb 0.04 in1.0 mm 0.00 in/hr0.0 mm/hr 0.21 in5.3 mm
07:22 PM 46.2°F7.9°C 42.8°F6.0°C 88% 5.0 mph NNW8.0 kmh NNW 15.0 mph24.1 kmh 30.06 in1017.9 mb 0.04 in1.0 mm 0.00 in/hr0.0 mm/hr 0.21 in5.3 mm
07:17 PM 46.2°F7.9°C 43.1°F6.2°C 89% 2.0 mph N3.2 kmh N 12.0 mph19.3 kmh 30.06 in1017.9 mb 0.04 in1.0 mm 0.00 in/hr0.0 mm/hr 0.21 in5.3 mm
07:12 PM 46.2°F7.9°C 42.8°F6.0°C 88% 2.0 mph NNW3.2 kmh NNW 12.0 mph19.3 kmh 30.06 in1017.9 mb 0.04 in1.0 mm 0.48 in/hr12.2 mm/hr 0.21 in5.3 mm
07:07 PM 46.3°F7.9°C 42.9°F6.1°C 88% 4.0 mph NW6.4 kmh NW 12.0 mph19.3 kmh 30.05 in1017.6 mb 0.00 in0.0 mm 0.00 in/hr0.0 mm/hr 0.20 in5.1 mm
07:02 PM 46.3°F7.9°C 42.9°F6.1°C 88% 2.0 mph WNW3.2 kmh WNW 12.0 mph19.3 kmh 30.06 in1017.9 mb 0.00 in0.0 mm 0.00 in/hr0.0 mm/hr 0.20 in5.1 mm
06:57 PM 46.3°F7.9°C 42.9°F6.1°C 88% 6.0 mph N9.7 kmh N 12.0 mph19.3 kmh 30.05 in1017.6 mb 0.00 in0.0 mm 0.00 in/hr0.0 mm/hr 0.20 in5.1 mm
06:52 PM 46.3°F7.9°C 42.9°F6.1°C 88% 2.0 mph NNW3.2 kmh NNW 12.0 mph19.3 kmh 30.05 in1017.6 mb 0.04 in1.0 mm 0.00 in/hr0.0 mm/hr 0.19 in4.8 mm
06:47 PM 46.3°F7.9°C 42.9°F6.1°C 88% 7.0 mph NW11.3 kmh NW 12.0 mph19.3 kmh 30.05 in1017.6 mb 0.06 in1.5 mm 0.00 in/hr0.0 mm/hr 0.19 in4.8 mm
06:42 PM 46.3°F7.9°C 42.6°F5.9°C 87% 3.0 mph N4.8 kmh N 12.0 mph19.3 kmh 30.05 in1017.6 mb 0.10 in2.5 mm 0.00 in/hr0.0 mm/hr 0.19 in4.8 mm
06:37 PM 46.5°F8.1°C 42.8°F6.0°C 87% 7.0 mph NNW11.3 kmh NNW 12.0 mph19.3 kmh 30.05 in1017.6 mb 0.10 in2.5 mm 0.00 in/hr0.0 mm/hr 0.18 in4.6 mm
06:32 PM 46.6°F8.1°C 42.9°F6.1°C 87% 9.0 mph NNW14.5 kmh NNW 11.0 mph17.7 kmh 30.04 in1017.3 mb 0.10 in2.5 mm 0.24 in/hr6.1 mm/hr 0.18 in4.6 mm
06:27 PM 46.6°F8.1°C 42.9°F6.1°C 87% 3.0 mph NW4.8 kmh NW 11.0 mph17.7 kmh 30.04 in1017.3 mb 0.08 in2.0 mm 0.96 in/hr24.4 mm/hr 0.17 in4.3 mm
06:22 PM 46.8°F8.2°C 43.1°F6.2°C 87% 3.0 mph NW4.8 kmh NW 13.0 mph20.9 kmh 30.04 in1017.3 mb 0.00 in0.0 mm 0.00 in/hr0.0 mm/hr 0.16 in4.1 mm
06:17 PM 46.8°F8.2°C 43.1°F6.2°C 87% 5.0 mph NNE8.0 kmh NNE 13.0 mph20.9 kmh 30.04 in1017.3 mb 0.00 in0.0 mm 0.00 in/hr0.0 mm/hr 0.16 in4.1 mm
06:12 PM 46.9°F8.3°C 43.2°F6.2°C 87% 3.0 mph NW4.8 kmh NW 19.0 mph30.6 kmh 30.04 in1017.3 mb 0.00 in0.0 mm 0.00 in/hr0.0 mm/hr 0.15 in3.8 mm
06:07 PM 46.9°F8.3°C 43.2°F6.2°C 87% 4.0 mph NNE6.4 kmh NNE 19.0 mph30.6 kmh 30.04 in1017.3 mb 0.00 in0.0 mm 0.00 in/hr0.0 mm/hr 0.15 in3.8 mm
06:02 PM 47.0°F8.3°C 43.3°F6.3°C 87% 9.0 mph N14.5 kmh N 19.0 mph30.6 kmh 30.04 in1017.3 mb 0.00 in0.0 mm 0.00 in/hr0.0 mm/hr 0.15 in3.8 mm
05:57 PM 46.9°F8.3°C 43.2°F6.2°C 87% 2.0 mph NNW3.2 kmh NNW 19.0 mph30.6 kmh 30.04 in1017.3 mb 0.00 in0.0 mm 0.00 in/hr0.0 mm/hr 0.15 in3.8 mm
05:52 PM 46.8°F8.2°C 43.1°F6.2°C 87% 3.0 mph NNW4.8 kmh NNW 8.0 mph12.9 kmh 30.03 in1016.9 mb 0.00 in0.0 mm 0.00 in/hr0.0 mm/hr 0.15 in3.8 mm
05:47 PM 46.8°F8.2°C 43.1°F6.2°C 87% 2.0 mph NW3.2 kmh NW 12.0 mph19.3 kmh 30.03 in1016.9 mb 0.00 in0.0 mm 0.00 in/hr0.0 mm/hr 0.15 in3.8 mm
05:42 PM 46.8°F8.2°C 43.1°F6.2°C 87% 2.0 mph NNW3.2 kmh NNW 12.0 mph19.3 kmh 30.03 in1016.9 mb 0.00 in0.0 mm 0.00 in/hr0.0 mm/hr 0.15 in3.8 mm
05:37 PM 46.7°F8.2°C 43.0°F6.1°C 87% 4.0 mph W6.4 kmh W 12.0 mph19.3 kmh 30.03 in1016.9 mb 0.00 in0.0 mm 0.00 in/hr0.0 mm/hr 0.15 in3.8 mm
05:32 PM 46.7°F8.2°C 43.0°F6.1°C 87% 4.0 mph NNW6.4 kmh NNW 12.0 mph19.3 kmh 30.02 in1016.6 mb 0.00 in0.0 mm 0.00 in/hr0.0 mm/hr 0.15 in3.8 mm
05:27 PM 46.7°F8.2°C 43.0°F6.1°C 87% 4.0 mph NNE6.4 kmh NNE 10.0 mph16.1 kmh 30.02 in1016.6 mb 0.00 in0.0 mm 0.00 in/hr0.0 mm/hr 0.15 in3.8 mm
05:22 PM 46.7°F8.2°C 43.0°F6.1°C 87% 7.0 mph NNW11.3 kmh NNW 10.0 mph16.1 kmh 30.02 in1016.6 mb 0.00 in0.0 mm 0.00 in/hr0.0 mm/hr 0.15 in3.8 mm
05:17 PM 46.7°F8.2°C 43.0°F6.1°C 87% 6.0 mph SW9.7 kmh SW 11.0 mph17.7 kmh 30.02 in1016.6 mb 0.00 in0.0 mm 0.00 in/hr0.0 mm/hr 0.15 in3.8 mm
05:12 PM 46.7°F8.2°C 43.0°F6.1°C 87% 3.0 mph NNW4.8 kmh NNW 11.0 mph17.7 kmh 30.02 in1016.6 mb 0.00 in0.0 mm 0.00 in/hr0.0 mm/hr 0.15 in3.8 mm
05:07 PM 46.6°F8.1°C 42.9°F6.1°C 87% 2.0 mph N3.2 kmh N 11.0 mph17.7 kmh 30.02 in1016.6 mb 0.00 in0.0 mm 0.00 in/hr0.0 mm/hr 0.15 in3.8 mm
05:02 PM 46.6°F8.1°C 42.9°F6.1°C 87% 3.0 mph NW4.8 kmh NW 11.0 mph17.7 kmh 30.02 in1016.6 mb 0.00 in0.0 mm 0.00 in/hr0.0 mm/hr 0.14 in3.6 mm
04:57 PM 46.6°F8.1°C 42.9°F6.1°C 87% 9.0 mph NNE14.5 kmh NNE 13.0 mph20.9 kmh 30.01 in1016.3 mb 0.00 in0.0 mm 0.00 in/hr0.0 mm/hr 0.14 in3.6 mm
04:52 PM 46.6°F8.1°C 42.9°F6.1°C 87% 4.0 mph NW6.4 kmh NW 13.0 mph20.9 kmh 30.01 in1016.3 mb 0.00 in0.0 mm 0.00 in/hr0.0 mm/hr 0.14 in3.6 mm
04:47 PM 46.7°F8.2°C 43.0°F6.1°C 87% 2.0 mph NW3.2 kmh NW 13.0 mph20.9 kmh 30.01 in1016.3 mb 0.00 in0.0 mm 0.00 in/hr0.0 mm/hr 0.14 in3.6 mm
04:42 PM 46.8°F8.2°C 43.1°F6.2°C 87% 4.0 mph N6.4 kmh N 13.0 mph20.9 kmh 30.01 in1016.3 mb 0.00 in0.0 mm 0.00 in/hr0.0 mm/hr 0.14 in3.6 mm
04:37 PM 46.9°F8.3°C 43.2°F6.2°C 87% 3.0 mph NNE4.8 kmh NNE 7.0 mph11.3 kmh 30.01 in1016.3 mb 0.00 in0.0 mm 0.00 in/hr0.0 mm/hr 0.14 in3.6 mm
04:32 PM 47.0°F8.3°C 43.3°F6.3°C 87% 3.0 mph NW4.8 kmh NW 11.0 mph17.7 kmh 30.01 in1016.3 mb 0.00 in0.0 mm 0.00 in/hr0.0 mm/hr 0.14 in3.6 mm
04:27 PM 47.1°F8.4°C 43.4°F6.3°C 87% 2.0 mph NW3.2 kmh NW 11.0 mph17.7 kmh 30.01 in1016.3 mb 0.00 in0.0 mm 0.00 in/hr0.0 mm/hr 0.14 in3.6 mm
04:22 PM 47.2°F8.4°C 43.2°F6.2°C 86% 7.0 mph NNW11.3 kmh NNW 11.0 mph17.7 kmh 30.01 in1016.3 mb 0.00 in0.0 mm 0.00 in/hr0.0 mm/hr 0.14 in3.6 mm
04:17 PM 47.2°F8.4°C 43.2°F6.2°C 86% 2.0 mph N3.2 kmh N 11.0 mph17.7 kmh 30.01 in1016.3 mb 0.00 in0.0 mm 0.00 in/hr0.0 mm/hr 0.14 in3.6 mm
04:12 PM 47.3°F8.5°C 43.3°F6.3°C 86% 4.0 mph NW6.4 kmh NW 12.0 mph19.3 kmh 30.01 in1016.3 mb 0.00 in0.0 mm 0.00 in/hr0.0 mm/hr 0.14 in3.6 mm
04:07 PM 47.5°F8.6°C 43.5°F6.4°C 86% 3.0 mph NW4.8 kmh NW 12.0 mph19.3 kmh 30.00 in1015.9 mb 0.00 in0.0 mm 0.00 in/hr0.0 mm/hr 0.14 in3.6 mm
04:02 PM 47.6°F8.7°C 43.3°F6.3°C 85% 2.0 mph WSW3.2 kmh WSW 19.0 mph30.6 kmh 30.00 in1015.9 mb 0.00 in0.0 mm 0.00 in/hr0.0 mm/hr 0.14 in3.6 mm
03:57 PM 47.6°F8.7°C 43.3°F6.3°C 85% 5.0 mph WNW8.0 kmh WNW 19.0 mph30.6 kmh 30.00 in1015.9 mb 0.00 in0.0 mm 0.00 in/hr0.0 mm/hr 0.14 in3.6 mm
03:52 PM 47.6°F8.7°C 43.3°F6.3°C 85% 1.0 mph NNE1.6 kmh NNE 19.0 mph30.6 kmh 30.00 in1015.9 mb 0.00 in0.0 mm 0.00 in/hr0.0 mm/hr 0.14 in3.6 mm
03:47 PM 47.6°F8.7°C 43.3°F6.3°C 85% 1.0 mph SSW1.6 kmh SSW 19.0 mph30.6 kmh 30.00 in1015.9 mb 0.00 in0.0 mm 0.00 in/hr0.0 mm/hr 0.14 in3.6 mm
03:42 PM 47.6°F8.7°C 43.3°F6.3°C 85% 2.0 mph NNW3.2 kmh NNW 16.0 mph25.7 kmh 30.00 in1015.9 mb 0.00 in0.0 mm 0.00 in/hr0.0 mm/hr 0.14 in3.6 mm
03:37 PM 47.7°F8.7°C 43.4°F6.3°C 85% 6.0 mph NNE9.7 kmh NNE 16.0 mph25.7 kmh 29.99 in1015.6 mb 0.00 in0.0 mm 0.00 in/hr0.0 mm/hr 0.14 in3.6 mm
03:32 PM 47.7°F8.7°C 43.4°F6.3°C 85% 6.0 mph NNE9.7 kmh NNE 16.0 mph25.7 kmh 29.99 in1015.6 mb 0.00 in0.0 mm 0.00 in/hr0.0 mm/hr 0.14 in3.6 mm
03:27 PM 47.6°F8.7°C 43.3°F6.3°C 85% 6.0 mph NW9.7 kmh NW 13.0 mph20.9 kmh 29.99 in1015.6 mb 0.00 in0.0 mm 0.00 in/hr0.0 mm/hr 0.14 in3.6 mm
03:22 PM 47.7°F8.7°C 43.4°F6.3°C 85% 1.0 mph NW1.6 kmh NW 13.0 mph20.9 kmh 29.98 in1015.2 mb 0.00 in0.0 mm 0.00 in/hr0.0 mm/hr 0.14 in3.6 mm
03:17 PM 47.7°F8.7°C 43.4°F6.3°C 85% 4.0 mph N6.4 kmh N 19.0 mph30.6 kmh 29.99 in1015.6 mb 0.00 in0.0 mm 0.00 in/hr0.0 mm/hr 0.14 in3.6 mm
03:12 PM 47.8°F8.8°C 43.5°F6.4°C 85% 5.0 mph NW8.0 kmh NW 19.0 mph30.6 kmh 29.98 in1015.2 mb 0.00 in0.0 mm 0.00 in/hr0.0 mm/hr 0.14 in3.6 mm
03:07 PM 47.7°F8.7°C 43.4°F6.3°C 85% Calm Calm 19.0 mph30.6 kmh 29.98 in1015.2 mb 0.00 in0.0 mm 0.00 in/hr0.0 mm/hr 0.13 in3.3 mm
03:02 PM 47.8°F8.8°C 43.5°F6.4°C 85% 19.0 mph N30.6 kmh N 19.0 mph30.6 kmh 29.98 in1015.2 mb 0.00 in0.0 mm 0.00 in/hr0.0 mm/hr 0.13 in3.3 mm
02:57 PM 47.8°F8.8°C 43.5°F6.4°C 85% 3.0 mph NW4.8 kmh NW 11.0 mph17.7 kmh 29.98 in1015.2 mb 0.00 in0.0 mm 0.00 in/hr0.0 mm/hr 0.13 in3.3 mm
02:52 PM 47.9°F8.8°C 43.6°F6.4°C 85% 4.0 mph WNW6.4 kmh WNW 11.0 mph17.7 kmh 29.98 in1015.2 mb 0.00 in0.0 mm 0.00 in/hr0.0 mm/hr 0.13 in3.3 mm
02:47 PM 47.9°F8.8°C 43.6°F6.4°C 85% 5.0 mph W8.0 kmh W 11.0 mph17.7 kmh 29.98 in1015.2 mb 0.00 in0.0 mm 0.00 in/hr0.0 mm/hr 0.13 in3.3 mm
02:42 PM 48.1°F8.9°C 43.8°F6.6°C 85% 3.0 mph WNW4.8 kmh WNW 11.0 mph17.7 kmh 29.98 in1015.2 mb 0.00 in0.0 mm 0.00 in/hr0.0 mm/hr 0.13 in3.3 mm
02:37 PM 48.2°F9.0°C 43.9°F6.6°C 85% 2.0 mph NNW3.2 kmh NNW 10.0 mph16.1 kmh 29.98 in1015.2 mb 0.00 in0.0 mm 0.00 in/hr0.0 mm/hr 0.13 in3.3 mm
02:32 PM 48.3°F9.1°C 43.6°F6.4°C 84% 4.0 mph NW6.4 kmh NW 10.0 mph16.1 kmh 29.98 in1015.2 mb 0.00 in0.0 mm 0.00 in/hr0.0 mm/hr 0.13 in3.3 mm
02:27 PM 48.4°F9.1°C 43.7°F6.5°C 84% 6.0 mph NNE9.7 kmh NNE 15.0 mph24.1 kmh 29.98 in1015.2 mb 0.00 in0.0 mm 0.00 in/hr0.0 mm/hr 0.13 in3.3 mm
02:22 PM 48.4°F9.1°C 43.7°F6.5°C 84% 1.0 mph 1.6 kmh 15.0 mph24.1 kmh 29.98 in1015.2 mb 0.00 in0.0 mm 0.00 in/hr0.0 mm/hr 0.13 in3.3 mm
02:17 PM 48.5°F9.2°C 43.5°F6.4°C 83% 4.0 mph N6.4 kmh N 15.0 mph24.1 kmh 29.97 in1014.9 mb 0.00 in0.0 mm 0.00 in/hr0.0 mm/hr 0.13 in3.3 mm
02:12 PM 48.5°F9.2°C 43.5°F6.4°C 83% Calm Calm 15.0 mph24.1 kmh 29.98 in1015.2 mb 0.00 in0.0 mm 0.00 in/hr0.0 mm/hr 0.13 in3.3 mm
02:07 PM 48.5°F9.2°C 43.5°F6.4°C 83% 7.0 mph NE11.3 kmh NE 11.0 mph17.7 kmh 29.98 in1015.2 mb 0.00 in0.0 mm 0.00 in/hr0.0 mm/hr 0.13 in3.3 mm
02:02 PM 48.5°F9.2°C 43.5°F6.4°C 83% 3.0 mph NNW4.8 kmh NNW 14.0 mph22.5 kmh 29.97 in1014.9 mb 0.00 in0.0 mm 0.00 in/hr0.0 mm/hr 0.13 in3.3 mm
01:57 PM 48.5°F9.2°C 43.5°F6.4°C 83% Calm Calm 14.0 mph22.5 kmh 29.97 in1014.9 mb 0.00 in0.0 mm 0.00 in/hr0.0 mm/hr 0.13 in3.3 mm
01:52 PM 48.6°F9.2°C 43.6°F6.4°C 83% 7.0 mph NW11.3 kmh NW 14.0 mph22.5 kmh 29.97 in1014.9 mb 0.00 in0.0 mm 0.00 in/hr0.0 mm/hr 0.13 in3.3 mm
01:47 PM 48.6°F9.2°C 43.6°F6.4°C 83% 1.0 mph 1.6 kmh 14.0 mph22.5 kmh 29.97 in1014.9 mb 0.00 in0.0 mm 0.00 in/hr0.0 mm/hr 0.13 in3.3 mm
01:42 PM 48.6°F9.2°C 43.6°F6.4°C 83% 9.0 mph N14.5 kmh N 14.0 mph22.5 kmh 29.97 in1014.9 mb 0.00 in0.0 mm 0.00 in/hr0.0 mm/hr 0.13 in3.3 mm
01:37 PM 48.6°F9.2°C 43.6°F6.4°C 83% 8.0 mph NNW12.9 kmh NNW 14.0 mph22.5 kmh 29.97 in1014.9 mb 0.00 in0.0 mm 0.00 in/hr0.0 mm/hr 0.13 in3.3 mm
01:32 PM 48.6°F9.2°C 43.9°F6.6°C 84% 1.0 mph 1.6 kmh 13.0 mph20.9 kmh 29.97 in1014.9 mb 0.00 in0.0 mm 0.00 in/hr0.0 mm/hr 0.13 in3.3 mm
01:27 PM 48.6°F9.2°C 43.9°F6.6°C 84% 2.0 mph N3.2 kmh N 13.0 mph20.9 kmh 29.97 in1014.9 mb 0.00 in0.0 mm 0.00 in/hr0.0 mm/hr 0.13 in3.3 mm
01:22 PM 48.7°F9.3°C 44.0°F6.7°C 84% 8.0 mph NNE12.9 kmh NNE 13.0 mph20.9 kmh 29.97 in1014.9 mb 0.00 in0.0 mm 0.00 in/hr0.0 mm/hr 0.13 in3.3 mm
01:17 PM 48.7°F9.3°C 44.0°F6.7°C 84% 5.0 mph NNW8.0 kmh NNW 13.0 mph20.9 kmh 29.97 in1014.9 mb 0.00 in0.0 mm 0.00 in/hr0.0 mm/hr 0.13 in3.3 mm
01:12 PM 48.8°F9.3°C 44.1°F6.7°C 84% 4.0 mph N6.4 kmh N 17.0 mph27.4 kmh 29.97 in1014.9 mb 0.00 in0.0 mm 0.00 in/hr0.0 mm/hr 0.13 in3.3 mm
01:07 PM 48.8°F9.3°C 44.1°F6.7°C 84% 9.0 mph N14.5 kmh N 17.0 mph27.4 kmh 29.97 in1014.9 mb 0.00 in0.0 mm 0.00 in/hr0.0 mm/hr 0.13 in3.3 mm
01:02 PM 48.8°F9.3°C 44.1°F6.7°C 84% 7.0 mph N11.3 kmh N 20.0 mph32.2 kmh 29.97 in1014.9 mb 0.00 in0.0 mm 0.00 in/hr0.0 mm/hr 0.13 in3.3 mm
12:57 PM 48.7°F9.3°C 44.0°F6.7°C 84% 10.0 mph N16.1 kmh N 20.0 mph32.2 kmh 29.97 in1014.9 mb 0.00 in0.0 mm 0.00 in/hr0.0 mm/hr 0.13 in3.3 mm
12:52 PM 48.6°F9.2°C 43.9°F6.6°C 84% 5.0 mph N8.0 kmh N 20.0 mph32.2 kmh 29.96 in1014.6 mb 0.00 in0.0 mm 0.00 in/hr0.0 mm/hr 0.13 in3.3 mm
12:47 PM 48.6°F9.2°C 44.3°F6.8°C 85% 9.0 mph N14.5 kmh N 20.0 mph32.2 kmh 29.96 in1014.6 mb 0.00 in0.0 mm 0.00 in/hr0.0 mm/hr 0.13 in3.3 mm
12:42 PM 48.4°F9.1°C 44.1°F6.7°C 85% 11.0 mph NNW17.7 kmh NNW 19.0 mph30.6 kmh 29.96 in1014.6 mb 0.00 in0.0 mm 0.00 in/hr0.0 mm/hr 0.13 in3.3 mm
12:37 PM 48.4°F9.1°C 44.1°F6.7°C 85% 7.0 mph NNW11.3 kmh NNW 19.0 mph30.6 kmh 29.96 in1014.6 mb 0.00 in0.0 mm 0.00 in/hr0.0 mm/hr 0.13 in3.3 mm
12:32 PM 48.4°F9.1°C 44.1°F6.7°C 85% 3.0 mph NNW4.8 kmh NNW 16.0 mph25.7 kmh 29.96 in1014.6 mb 0.00 in0.0 mm 0.00 in/hr0.0 mm/hr 0.13 in3.3 mm
12:27 PM 48.4°F9.1°C 44.4°F6.9°C 86% 4.0 mph NNW6.4 kmh NNW 14.0 mph22.5 kmh 29.96 in1014.6 mb 0.00 in0.0 mm 0.00 in/hr0.0 mm/hr 0.13 in3.3 mm
12:22 PM 48.3°F9.1°C 44.3°F6.8°C 86% 4.0 mph N6.4 kmh N 13.0 mph20.9 kmh 29.96 in1014.6 mb 0.00 in0.0 mm 0.00 in/hr0.0 mm/hr 0.13 in3.3 mm
12:17 PM 48.3°F9.1°C 44.3°F6.8°C 86% 2.0 mph N3.2 kmh N 13.0 mph20.9 kmh 29.96 in1014.6 mb 0.00 in0.0 mm 0.00 in/hr0.0 mm/hr 0.13 in3.3 mm
12:12 PM 48.4°F9.1°C 44.7°F7.1°C 87% 4.0 mph NNW6.4 kmh NNW 14.0 mph22.5 kmh 29.96 in1014.6 mb 0.00 in0.0 mm 0.00 in/hr0.0 mm/hr 0.13 in3.3 mm
12:07 PM 48.4°F9.1°C 44.7°F7.1°C 87% 4.0 mph NNE6.4 kmh NNE 14.0 mph22.5 kmh 29.95 in1014.2 mb 0.00 in0.0 mm 0.00 in/hr0.0 mm/hr 0.13 in3.3 mm
12:02 PM 48.5°F9.2°C 44.8°F7.1°C 87% 4.0 mph N6.4 kmh N 14.0 mph22.5 kmh 29.95 in1014.2 mb 0.00 in0.0 mm 0.00 in/hr0.0 mm/hr 0.13 in3.3 mm
11:57 AM 48.5°F9.2°C 44.8°F7.1°C 87% 6.0 mph N9.7 kmh N 14.0 mph22.5 kmh 29.95 in1014.2 mb 0.00 in0.0 mm 0.00 in/hr0.0 mm/hr 0.13 in3.3 mm
11:52 AM 48.4°F9.1°C 44.7°F7.1°C 87% 10.0 mph NNE16.1 kmh NNE 16.0 mph25.7 kmh 29.95 in1014.2 mb 0.00 in0.0 mm 0.00 in/hr0.0 mm/hr 0.13 in3.3 mm
11:47 AM 48.4°F9.1°C 44.7°F7.1°C 87% 4.0 mph NNW6.4 kmh NNW 16.0 mph25.7 kmh 29.95 in1014.2 mb 0.00 in0.0 mm 0.00 in/hr0.0 mm/hr 0.13 in3.3 mm
11:42 AM 48.4°F9.1°C 44.7°F7.1°C 87% 6.0 mph N9.7 kmh N 17.0 mph27.4 kmh 29.95 in1014.2 mb 0.00 in0.0 mm 0.00 in/hr0.0 mm/hr 0.13 in3.3 mm
11:37 AM 48.4°F9.1°C 44.7°F7.1°C 87% 1.0 mph N1.6 kmh N 17.0 mph27.4 kmh 29.95 in1014.2 mb 0.00 in0.0 mm 0.00 in/hr0.0 mm/hr 0.13 in3.3 mm
11:32 AM 48.4°F9.1°C 45.0°F7.2°C 88% 8.0 mph NNW12.9 kmh NNW 17.0 mph27.4 kmh 29.95 in1014.2 mb 0.00 in0.0 mm 0.00 in/hr0.0 mm/hr 0.13 in3.3 mm
11:27 AM 48.5°F9.2°C 45.1°F7.3°C 88% 9.0 mph 14.5 kmh 17.0 mph27.4 kmh 29.95 in1014.2 mb 0.00 in0.0 mm 0.00 in/hr0.0 mm/hr 0.13 in3.3 mm
11:22 AM 48.5°F9.2°C 45.1°F7.3°C 88% 5.0 mph N8.0 kmh N 16.0 mph25.7 kmh 29.94 in1013.9 mb 0.00 in0.0 mm 0.00 in/hr0.0 mm/hr 0.13 in3.3 mm
11:17 AM 48.4°F9.1°C 45.0°F7.2°C 88% 9.0 mph 14.5 kmh 16.0 mph25.7 kmh 29.94 in1013.9 mb 0.00 in0.0 mm 0.00 in/hr0.0 mm/hr 0.13 in3.3 mm
11:12 AM 48.4°F9.1°C 45.0°F7.2°C 88% 5.0 mph NNW8.0 kmh NNW 16.0 mph25.7 kmh 29.94 in1013.9 mb 0.00 in0.0 mm 0.00 in/hr0.0 mm/hr 0.13 in3.3 mm
11:07 AM 48.5°F9.2°C 45.4°F7.4°C 89% 11.0 mph N17.7 kmh N 13.0 mph20.9 kmh 29.94 in1013.9 mb 0.00 in0.0 mm 0.00 in/hr0.0 mm/hr 0.13 in3.3 mm
11:02 AM 48.6°F9.2°C 45.5°F7.5°C 89% 4.0 mph NNW6.4 kmh NNW 15.0 mph24.1 kmh 29.94 in1013.9 mb 0.00 in0.0 mm 0.00 in/hr0.0 mm/hr 0.13 in3.3 mm
10:57 AM 48.7°F9.3°C 45.6°F7.6°C 89% Calm Calm 15.0 mph24.1 kmh 29.94 in1013.9 mb 0.00 in0.0 mm 0.00 in/hr0.0 mm/hr 0.13 in3.3 mm
10:52 AM 48.7°F9.3°C 45.6°F7.6°C 89% Calm Calm 15.0 mph24.1 kmh 29.93 in1013.5 mb 0.00 in0.0 mm 0.00 in/hr0.0 mm/hr 0.13 in3.3 mm
10:47 AM 48.8°F9.3°C 45.7°F7.6°C 89% 10.0 mph N16.1 kmh N 15.0 mph24.1 kmh 29.93 in1013.5 mb 0.00 in0.0 mm 0.00 in/hr0.0 mm/hr 0.13 in3.3 mm
10:42 AM 48.9°F9.4°C 45.8°F7.7°C 89% 9.0 mph NNW14.5 kmh NNW 14.0 mph22.5 kmh 29.93 in1013.5 mb 0.00 in0.0 mm 0.00 in/hr0.0 mm/hr 0.13 in3.3 mm
10:37 AM 48.9°F9.4°C 45.8°F7.7°C 89% 1.0 mph N1.6 kmh N 13.0 mph20.9 kmh 29.93 in1013.5 mb 0.04 in1.0 mm 0.00 in/hr0.0 mm/hr 0.13 in3.3 mm
10:32 AM 49.0°F9.4°C 45.9°F7.7°C 89% Calm Calm 13.0 mph20.9 kmh 29.93 in1013.5 mb 0.05 in1.3 mm 0.00 in/hr0.0 mm/hr 0.13 in3.3 mm
10:27 AM 49.1°F9.5°C 45.7°F7.6°C 88% Calm Calm 13.0 mph20.9 kmh 29.93 in1013.5 mb 0.08 in2.0 mm 0.00 in/hr0.0 mm/hr 0.13 in3.3 mm
10:22 AM 49.3°F9.6°C 45.9°F7.7°C 88% 3.0 mph NW4.8 kmh NW 9.0 mph14.5 kmh 29.93 in1013.5 mb 0.08 in2.0 mm 0.00 in/hr0.0 mm/hr 0.13 in3.3 mm
10:17 AM 49.5°F9.7°C 46.1°F7.8°C 88% 5.0 mph NW8.0 kmh NW 9.0 mph14.5 kmh 29.92 in1013.2 mb 0.11 in2.8 mm 0.00 in/hr0.0 mm/hr 0.12 in3.0 mm
10:12 AM 49.6°F9.8°C 46.2°F7.9°C 88% Calm Calm 8.0 mph12.9 kmh 29.92 in1013.2 mb 0.14 in3.6 mm 0.00 in/hr0.0 mm/hr 0.11 in2.8 mm
10:07 AM 49.7°F9.8°C 46.3°F7.9°C 88% Calm Calm 7.0 mph11.3 kmh 29.92 in1013.2 mb 0.23 in5.8 mm 2.28 in/hr57.9 mm/hr 0.09 in2.3 mm
10:02 AM 49.9°F9.9°C 46.2°F7.9°C 87% Calm Calm 1.0 mph1.6 kmh 29.92 in1013.2 mb 0.04 in1.0 mm 0.00 in/hr0.0 mm/hr 0.07 in1.8 mm
09:57 AM 49.9°F9.9°C 46.2°F7.9°C 87% Calm Calm 2.0 mph3.2 kmh 29.92 in1013.2 mb 0.06 in1.5 mm 0.00 in/hr0.0 mm/hr 0.07 in1.8 mm
09:52 AM 50.0°F10.0°C 46.3°F7.9°C 87% 1.0 mph WNW1.6 kmh WNW 9.0 mph14.5 kmh 29.92 in1013.2 mb 0.14 in3.6 mm 1.68 in/hr42.7 mm/hr 0.07 in1.8 mm
09:47 AM 50.1°F10.1°C 46.4°F8.0°C 87% 5.0 mph WNW8.0 kmh WNW 5.0 mph8.0 kmh 29.92 in1013.2 mb 0.00 in0.0 mm 0.00 in/hr0.0 mm/hr 0.06 in1.5 mm
09:42 AM 50.1°F10.1°C 46.4°F8.0°C 87% Calm Calm 6.0 mph9.7 kmh 29.91 in1012.9 mb 0.00 in0.0 mm 0.00 in/hr0.0 mm/hr 0.05 in1.3 mm
09:37 AM 50.2°F10.1°C 46.5°F8.1°C 87% 1.0 mph NW1.6 kmh NW 6.0 mph9.7 kmh 29.91 in1012.9 mb 0.00 in0.0 mm 0.00 in/hr0.0 mm/hr 0.05 in1.3 mm
09:32 AM 50.2°F10.1°C 46.5°F8.1°C 87% 2.0 mph WNW3.2 kmh WNW 5.0 mph8.0 kmh 29.91 in1012.9 mb 0.00 in0.0 mm 0.00 in/hr0.0 mm/hr 0.05 in1.3 mm
09:27 AM 50.2°F10.1°C 46.5°F8.1°C 87% Calm Calm -- 29.91 in1012.9 mb 0.00 in0.0 mm 0.00 in/hr0.0 mm/hr 0.05 in1.3 mm
09:22 AM 50.1°F10.1°C 46.0°F7.8°C 86% Calm Calm 3.0 mph4.8 kmh 29.91 in1012.9 mb 0.00 in0.0 mm 0.00 in/hr0.0 mm/hr 0.05 in1.3 mm
09:17 AM 50.1°F10.1°C 46.0°F7.8°C 86% Calm Calm 5.0 mph8.0 kmh 29.91 in1012.9 mb 0.00 in0.0 mm 0.00 in/hr0.0 mm/hr 0.05 in1.3 mm
09:12 AM 50.1°F10.1°C 46.0°F7.8°C 86% Calm Calm 5.0 mph8.0 kmh 29.91 in1012.9 mb 0.00 in0.0 mm 0.00 in/hr0.0 mm/hr 0.05 in1.3 mm
09:07 AM 50.0°F10.0°C 45.9°F7.7°C 86% 4.0 mph WNW6.4 kmh WNW 4.0 mph6.4 kmh 29.91 in1012.9 mb 0.00 in0.0 mm 0.00 in/hr0.0 mm/hr 0.05 in1.3 mm
09:02 AM 50.0°F10.0°C 45.9°F7.7°C 86% Calm Calm 5.0 mph8.0 kmh 29.91 in1012.9 mb 0.00 in0.0 mm 0.00 in/hr0.0 mm/hr 0.05 in1.3 mm
08:57 AM 50.0°F10.0°C 45.9°F7.7°C 86% Calm Calm 8.0 mph12.9 kmh 29.91 in1012.9 mb 0.00 in0.0 mm 0.00 in/hr0.0 mm/hr 0.05 in1.3 mm
08:52 AM 50.0°F10.0°C 46.3°F7.9°C 87% Calm Calm 8.0 mph12.9 kmh 29.91 in1012.9 mb 0.00 in0.0 mm 0.00 in/hr0.0 mm/hr 0.05 in1.3 mm
08:47 AM 50.0°F10.0°C 46.3°F7.9°C 87% 1.0 mph NW1.6 kmh NW 8.0 mph12.9 kmh 29.91 in1012.9 mb 0.00 in0.0 mm 0.00 in/hr0.0 mm/hr 0.05 in1.3 mm
08:42 AM 50.0°F10.0°C 46.3°F7.9°C 87% Calm Calm 2.0 mph3.2 kmh 29.90 in1012.5 mb 0.00 in0.0 mm 0.00 in/hr0.0 mm/hr 0.05 in1.3 mm
08:37 AM 49.9°F9.9°C 46.2°F7.9°C 87% Calm Calm -- 29.90 in1012.5 mb 0.00 in0.0 mm 0.00 in/hr0.0 mm/hr 0.05 in1.3 mm
08:32 AM 49.9°F9.9°C 46.2°F7.9°C 87% 1.0 mph NNW1.6 kmh NNW 3.0 mph4.8 kmh 29.90 in1012.5 mb 0.00 in0.0 mm 0.00 in/hr0.0 mm/hr 0.05 in1.3 mm
08:27 AM 49.8°F9.9°C 46.1°F7.8°C 87% 3.0 mph WNW4.8 kmh WNW 3.0 mph4.8 kmh 29.90 in1012.5 mb 0.00 in0.0 mm 0.00 in/hr0.0 mm/hr 0.05 in1.3 mm
08:22 AM 49.8°F9.9°C 46.1°F7.8°C 87% Calm Calm -- 29.89 in1012.2 mb 0.00 in0.0 mm 0.00 in/hr0.0 mm/hr 0.05 in1.3 mm
08:17 AM 49.7°F9.8°C 46.0°F7.8°C 87% Calm Calm -- 29.89 in1012.2 mb 0.00 in0.0 mm 0.00 in/hr0.0 mm/hr 0.05 in1.3 mm
08:12 AM 49.8°F9.9°C 46.1°F7.8°C 87% 3.0 mph N4.8 kmh N 8.0 mph12.9 kmh 29.89 in1012.2 mb 0.00 in0.0 mm 0.00 in/hr0.0 mm/hr 0.05 in1.3 mm
08:07 AM 49.9°F9.9°C 46.2°F7.9°C 87% Calm Calm 8.0 mph12.9 kmh 29.89 in1012.2 mb 0.00 in0.0 mm 0.00 in/hr0.0 mm/hr 0.05 in1.3 mm
08:02 AM 49.9°F9.9°C 46.2°F7.9°C 87% 1.0 mph NNE1.6 kmh NNE 2.0 mph3.2 kmh 29.89 in1012.2 mb 0.00 in0.0 mm 0.00 in/hr0.0 mm/hr 0.05 in1.3 mm
07:57 AM 49.9°F9.9°C 46.2°F7.9°C 87% Calm Calm -- 29.89 in1012.2 mb 0.00 in0.0 mm 0.00 in/hr0.0 mm/hr 0.05 in1.3 mm
07:52 AM 50.0°F10.0°C 46.3°F7.9°C 87% Calm Calm -- 29.89 in1012.2 mb 0.00 in0.0 mm 0.00 in/hr0.0 mm/hr 0.05 in1.3 mm
07:47 AM 50.0°F10.0°C 46.3°F7.9°C 87% Calm Calm 1.0 mph1.6 kmh 29.89 in1012.2 mb 0.00 in0.0 mm 0.00 in/hr0.0 mm/hr 0.05 in1.3 mm
07:42 AM 50.1°F10.1°C 46.4°F8.0°C 87% Calm Calm 3.0 mph4.8 kmh 29.88 in1011.9 mb 0.00 in0.0 mm 0.00 in/hr0.0 mm/hr 0.05 in1.3 mm
07:37 AM 50.2°F10.1°C 46.5°F8.1°C 87% Calm Calm 3.0 mph4.8 kmh 29.88 in1011.9 mb 0.00 in0.0 mm 0.00 in/hr0.0 mm/hr 0.05 in1.3 mm
07:32 AM 50.2°F10.1°C 46.8°F8.2°C 88% Calm Calm 7.0 mph11.3 kmh 29.88 in1011.9 mb 0.00 in0.0 mm 0.00 in/hr0.0 mm/hr 0.05 in1.3 mm
07:27 AM 50.3°F10.2°C 46.9°F8.3°C 88% Calm Calm 3.0 mph4.8 kmh 29.88 in1011.9 mb 0.00 in0.0 mm 0.00 in/hr0.0 mm/hr 0.05 in1.3 mm
07:22 AM 50.4°F10.2°C 47.0°F8.3°C 88% Calm Calm 6.0 mph9.7 kmh 29.88 in1011.9 mb 0.00 in0.0 mm 0.00 in/hr0.0 mm/hr 0.05 in1.3 mm
07:17 AM 50.4°F10.2°C 47.0°F8.3°C 88% Calm Calm 4.0 mph6.4 kmh 29.88 in1011.9 mb 0.00 in0.0 mm 0.00 in/hr0.0 mm/hr 0.05 in1.3 mm
07:12 AM 50.4°F10.2°C 47.0°F8.3°C 88% Calm Calm 4.0 mph6.4 kmh 29.88 in1011.9 mb 0.00 in0.0 mm 0.00 in/hr0.0 mm/hr 0.05 in1.3 mm
07:07 AM 50.4°F10.2°C 47.0°F8.3°C 88% Calm Calm 6.0 mph9.7 kmh 29.87 in1011.5 mb 0.00 in0.0 mm 0.00 in/hr0.0 mm/hr 0.05 in1.3 mm
07:02 AM 50.4°F10.2°C 47.0°F8.3°C 88% Calm Calm 1.0 mph1.6 kmh 29.87 in1011.5 mb 0.00 in0.0 mm 0.00 in/hr0.0 mm/hr 0.05 in1.3 mm
06:57 AM 50.3°F10.2°C 46.9°F8.3°C 88% Calm Calm 4.0 mph6.4 kmh 29.87 in1011.5 mb 0.00 in0.0 mm 0.00 in/hr0.0 mm/hr 0.05 in1.3 mm
06:52 AM 50.3°F10.2°C 46.9°F8.3°C 88% Calm Calm 4.0 mph6.4 kmh 29.87 in1011.5 mb 0.00 in0.0 mm 0.00 in/hr0.0 mm/hr 0.05 in1.3 mm
06:47 AM 50.3°F10.2°C 46.9°F8.3°C 88% Calm Calm 4.0 mph6.4 kmh 29.87 in1011.5 mb 0.00 in0.0 mm 0.00 in/hr0.0 mm/hr 0.05 in1.3 mm
06:42 AM 50.3°F10.2°C 46.9°F8.3°C 88% Calm Calm 8.0 mph12.9 kmh 29.86 in1011.2 mb 0.00 in0.0 mm 0.00 in/hr0.0 mm/hr 0.05 in1.3 mm
06:37 AM 50.3°F10.2°C 46.9°F8.3°C 88% Calm Calm -- 29.86 in1011.2 mb 0.00 in0.0 mm 0.00 in/hr0.0 mm/hr 0.05 in1.3 mm
06:32 AM 50.3°F10.2°C 46.9°F8.3°C 88% 2.0 mph N3.2 kmh N 2.0 mph3.2 kmh 29.86 in1011.2 mb 0.00 in0.0 mm 0.00 in/hr0.0 mm/hr 0.05 in1.3 mm
06:27 AM 50.3°F10.2°C 46.9°F8.3°C 88% Calm Calm 2.0 mph3.2 kmh 29.86 in1011.2 mb 0.00 in0.0 mm 0.00 in/hr0.0 mm/hr 0.05 in1.3 mm
06:22 AM 50.3°F10.2°C 46.9°F8.3°C 88% Calm Calm 2.0 mph3.2 kmh 29.86 in1011.2 mb 0.00 in0.0 mm 0.00 in/hr0.0 mm/hr 0.05 in1.3 mm
06:17 AM 50.2°F10.1°C 46.8°F8.2°C 88% Calm Calm 5.0 mph8.0 kmh 29.86 in1011.2 mb 0.00 in0.0 mm 0.00 in/hr0.0 mm/hr 0.05 in1.3 mm
06:12 AM 50.2°F10.1°C 47.1°F8.4°C 89% Calm Calm -- 29.86 in1011.2 mb 0.00 in0.0 mm 0.00 in/hr0.0 mm/hr 0.05 in1.3 mm
06:07 AM 50.1°F10.1°C 47.0°F8.3°C 89% Calm Calm 1.0 mph1.6 kmh 29.85 in1010.8 mb 0.00 in0.0 mm 0.00 in/hr0.0 mm/hr 0.05 in1.3 mm
06:02 AM 50.1°F10.1°C 47.0°F8.3°C 89% Calm Calm 3.0 mph4.8 kmh 29.85 in1010.8 mb 0.00 in0.0 mm 0.00 in/hr0.0 mm/hr 0.05 in1.3 mm
05:57 AM 50.0°F10.0°C 46.9°F8.3°C 89% Calm Calm 1.0 mph1.6 kmh 29.85 in1010.8 mb 0.00 in0.0 mm 0.00 in/hr0.0 mm/hr 0.05 in1.3 mm
05:52 AM 50.0°F10.0°C 46.9°F8.3°C 89% 3.0 mph N4.8 kmh N 4.0 mph6.4 kmh 29.85 in1010.8 mb 0.00 in0.0 mm 0.00 in/hr0.0 mm/hr 0.05 in1.3 mm
05:47 AM 50.0°F10.0°C 46.9°F8.3°C 89% Calm Calm -- 29.85 in1010.8 mb 0.00 in0.0 mm 0.00 in/hr0.0 mm/hr 0.05 in1.3 mm
05:42 AM 50.0°F10.0°C 46.9°F8.3°C 89% Calm Calm -- 29.85 in1010.8 mb 0.00 in0.0 mm 0.00 in/hr0.0 mm/hr 0.05 in1.3 mm
05:37 AM 50.1°F10.1°C 47.0°F8.3°C 89% Calm Calm -- 29.85 in1010.8 mb 0.00 in0.0 mm 0.00 in/hr0.0 mm/hr 0.05 in1.3 mm
05:32 AM 50.2°F10.1°C 47.1°F8.4°C 89% Calm Calm 3.0 mph4.8 kmh 29.86 in1011.2 mb 0.00 in0.0 mm 0.00 in/hr0.0 mm/hr 0.05 in1.3 mm
05:27 AM 50.2°F10.1°C 47.1°F8.4°C 89% Calm Calm -- 29.85 in1010.8 mb 0.00 in0.0 mm 0.00 in/hr0.0 mm/hr 0.05 in1.3 mm
05:22 AM 50.2°F10.1°C 47.1°F8.4°C 89% Calm Calm 6.0 mph9.7 kmh 29.85 in1010.8 mb 0.00 in0.0 mm 0.00 in/hr0.0 mm/hr 0.05 in1.3 mm
05:17 AM 50.3°F10.2°C 47.2°F8.4°C 89% Calm Calm 4.0 mph6.4 kmh 29.85 in1010.8 mb 0.00 in0.0 mm 0.00 in/hr0.0 mm/hr 0.05 in1.3 mm
05:12 AM 50.4°F10.2°C 47.3°F8.5°C 89% Calm Calm -- 29.85 in1010.8 mb 0.00 in0.0 mm 0.00 in/hr0.0 mm/hr 0.05 in1.3 mm
05:07 AM 50.5°F10.3°C 47.4°F8.6°C 89% 1.0 mph NW1.6 kmh NW 7.0 mph11.3 kmh 29.85 in1010.8 mb 0.00 in0.0 mm 0.00 in/hr0.0 mm/hr 0.05 in1.3 mm
05:02 AM 50.6°F10.3°C 47.5°F8.6°C 89% 5.0 mph N8.0 kmh N 6.0 mph9.7 kmh 29.85 in1010.8 mb 0.00 in0.0 mm 0.00 in/hr0.0 mm/hr 0.05 in1.3 mm
04:57 AM 50.7°F10.4°C 47.6°F8.7°C 89% 1.0 mph N1.6 kmh N 3.0 mph4.8 kmh 29.85 in1010.8 mb 0.00 in0.0 mm 0.00 in/hr0.0 mm/hr 0.05 in1.3 mm
04:52 AM 50.8°F10.4°C 48.0°F8.9°C 90% Calm Calm 4.0 mph6.4 kmh 29.84 in1010.5 mb 0.00 in0.0 mm 0.00 in/hr0.0 mm/hr 0.05 in1.3 mm
04:47 AM 50.9°F10.5°C 48.1°F8.9°C 90% Calm Calm 10.0 mph16.1 kmh 29.84 in1010.5 mb 0.00 in0.0 mm 0.00 in/hr0.0 mm/hr 0.05 in1.3 mm
04:42 AM 51.0°F10.6°C 48.2°F9.0°C 90% Calm Calm 6.0 mph9.7 kmh 29.84 in1010.5 mb 0.00 in0.0 mm 0.00 in/hr0.0 mm/hr 0.05 in1.3 mm
04:37 AM 51.1°F10.6°C 48.3°F9.1°C 90% 4.0 mph N6.4 kmh N 5.0 mph8.0 kmh 29.84 in1010.5 mb 0.00 in0.0 mm 0.00 in/hr0.0 mm/hr 0.05 in1.3 mm
04:32 AM 51.2°F10.7°C 48.1°F8.9°C 89% Calm Calm -- 29.84 in1010.5 mb 0.00 in0.0 mm 0.00 in/hr0.0 mm/hr 0.05 in1.3 mm
04:27 AM 51.4°F10.8°C 48.3°F9.1°C 89% Calm Calm 10.0 mph16.1 kmh 29.84 in1010.5 mb 0.00 in0.0 mm 0.00 in/hr0.0 mm/hr 0.05 in1.3 mm
04:22 AM 51.5°F10.8°C 48.7°F9.3°C 90% Calm Calm 9.0 mph14.5 kmh 29.84 in1010.5 mb 0.00 in0.0 mm 0.00 in/hr0.0 mm/hr 0.05 in1.3 mm
04:17 AM 51.6°F10.9°C 48.8°F9.3°C 90% Calm Calm 9.0 mph14.5 kmh 29.84 in1010.5 mb 0.00 in0.0 mm 0.00 in/hr0.0 mm/hr 0.05 in1.3 mm
04:12 AM 51.7°F10.9°C 48.9°F9.4°C 90% Calm Calm 2.0 mph3.2 kmh 29.84 in1010.5 mb 0.00 in0.0 mm 0.00 in/hr0.0 mm/hr 0.04 in1.0 mm
04:07 AM 51.7°F10.9°C 48.9°F9.4°C 90% Calm Calm -- 29.84 in1010.5 mb 0.04 in1.0 mm 0.00 in/hr0.0 mm/hr 0.04 in1.0 mm
04:02 AM 51.7°F10.9°C 48.9°F9.4°C 90% Calm Calm 5.0 mph8.0 kmh 29.83 in1010.2 mb 0.07 in1.8 mm 0.00 in/hr0.0 mm/hr 0.04 in1.0 mm
03:57 AM 51.8°F11.0°C 48.9°F9.4°C 90% Calm Calm -- 29.84 in1010.5 mb 0.09 in2.3 mm 1.08 in/hr27.4 mm/hr 0.04 in1.0 mm
03:52 AM 51.8°F11.0°C 48.9°F9.4°C 90% Calm Calm 3.0 mph4.8 kmh 29.83 in1010.2 mb 0.00 in0.0 mm 0.00 in/hr0.0 mm/hr 0.03 in0.8 mm
03:47 AM 51.9°F11.1°C 49.0°F9.4°C 90% Calm Calm 5.0 mph8.0 kmh 29.83 in1010.2 mb 0.00 in0.0 mm 0.00 in/hr0.0 mm/hr 0.02 in0.5 mm
03:42 AM 52.1°F11.2°C 49.2°F9.6°C 90% Calm Calm 2.0 mph3.2 kmh 29.83 in1010.2 mb 0.00 in0.0 mm 0.00 in/hr0.0 mm/hr 0.02 in0.5 mm
03:37 AM 52.3°F11.3°C 49.4°F9.7°C 90% Calm Calm 6.0 mph9.7 kmh 29.84 in1010.5 mb 0.00 in0.0 mm 0.00 in/hr0.0 mm/hr 0.02 in0.5 mm
03:32 AM 52.3°F11.3°C 49.4°F9.7°C 90% Calm Calm -- 29.83 in1010.2 mb 0.00 in0.0 mm 0.00 in/hr0.0 mm/hr 0.02 in0.5 mm
03:27 AM 52.4°F11.3°C 49.5°F9.7°C 90% Calm Calm 5.0 mph8.0 kmh 29.83 in1010.2 mb 0.00 in0.0 mm 0.00 in/hr0.0 mm/hr 0.02 in0.5 mm
03:22 AM 52.4°F11.3°C 49.5°F9.7°C 90% 1.0 mph NNE1.6 kmh NNE 4.0 mph6.4 kmh 29.83 in1010.2 mb 0.00 in0.0 mm 0.00 in/hr0.0 mm/hr 0.01 in0.3 mm
03:17 AM 52.4°F11.3°C 49.5°F9.7°C 90% 1.0 mph 1.6 kmh 2.0 mph3.2 kmh 29.83 in1010.2 mb 0.00 in0.0 mm 0.00 in/hr0.0 mm/hr 0.01 in0.3 mm
03:12 AM 52.4°F11.3°C 49.5°F9.7°C 90% 1.0 mph 1.6 kmh 1.0 mph1.6 kmh 29.83 in1010.2 mb 0.00 in0.0 mm 0.00 in/hr0.0 mm/hr 0.01 in0.3 mm
03:07 AM 52.4°F11.3°C 49.5°F9.7°C 90% Calm Calm 5.0 mph8.0 kmh 29.83 in1010.2 mb 0.00 in0.0 mm 0.00 in/hr0.0 mm/hr 0.01 in0.3 mm
03:02 AM 52.5°F11.4°C 49.6°F9.8°C 90% Calm Calm 4.0 mph6.4 kmh 29.83 in1010.2 mb 0.00 in0.0 mm 0.00 in/hr0.0 mm/hr 0.01 in0.3 mm
02:57 AM 52.6°F11.4°C 49.7°F9.8°C 90% Calm Calm -- 29.83 in1010.2 mb 0.00 in0.0 mm 0.00 in/hr0.0 mm/hr 0.01 in0.3 mm
02:52 AM 52.6°F11.4°C 49.7°F9.8°C 90% Calm Calm 4.0 mph6.4 kmh 29.83 in1010.2 mb 0.00 in0.0 mm 0.00 in/hr0.0 mm/hr 0.01 in0.3 mm
02:47 AM 52.7°F11.5°C 49.8°F9.9°C 90% Calm Calm -- 29.83 in1010.2 mb 0.00 in0.0 mm 0.00 in/hr0.0 mm/hr 0.00 in0.0 mm
02:42 AM 52.7°F11.5°C 49.8°F9.9°C 90% Calm Calm 3.0 mph4.8 kmh 29.83 in1010.2 mb 0.00 in0.0 mm 0.00 in/hr0.0 mm/hr 0.00 in0.0 mm
02:37 AM 52.7°F11.5°C 49.8°F9.9°C 90% Calm Calm 2.0 mph3.2 kmh 29.83 in1010.2 mb 0.00 in0.0 mm 0.00 in/hr0.0 mm/hr 0.00 in0.0 mm
02:32 AM 52.7°F11.5°C 49.8°F9.9°C 90% Calm Calm -- 29.83 in1010.2 mb 0.00 in0.0 mm 0.00 in/hr0.0 mm/hr 0.00 in0.0 mm
02:27 AM 52.7°F11.5°C 49.8°F9.9°C 90% Calm Calm 1.0 mph1.6 kmh 29.83 in1010.2 mb 0.00 in0.0 mm 0.00 in/hr0.0 mm/hr 0.00 in0.0 mm
02:22 AM 52.7°F11.5°C 49.8°F9.9°C 90% Calm Calm -- 29.82 in1009.8 mb 0.00 in0.0 mm 0.00 in/hr0.0 mm/hr 0.00 in0.0 mm
02:17 AM 52.8°F11.6°C 49.9°F9.9°C 90% Calm Calm -- 29.82 in1009.8 mb 0.00 in0.0 mm 0.00 in/hr0.0 mm/hr 0.00 in0.0 mm
02:12 AM 52.7°F11.5°C 49.8°F9.9°C 90% Calm Calm -- 29.82 in1009.8 mb 0.00 in0.0 mm 0.00 in/hr0.0 mm/hr 0.00 in0.0 mm
02:07 AM 52.8°F11.6°C 49.9°F9.9°C 90% Calm Calm -- 29.82 in1009.8 mb 0.00 in0.0 mm 0.00 in/hr0.0 mm/hr 0.00 in0.0 mm
02:02 AM 52.7°F11.5°C 49.8°F9.9°C 90% Calm Calm 2.0 mph3.2 kmh 29.82 in1009.8 mb 0.00 in0.0 mm 0.00 in/hr0.0 mm/hr 0.00 in0.0 mm
01:57 AM 52.7°F11.5°C 49.8°F9.9°C 90% Calm Calm -- 29.82 in1009.8 mb 0.00 in0.0 mm 0.00 in/hr0.0 mm/hr 0.00 in0.0 mm
01:52 AM 52.7°F11.5°C 49.8°F9.9°C 90% Calm Calm 1.0 mph1.6 kmh 29.83 in1010.2 mb 0.00 in0.0 mm 0.00 in/hr0.0 mm/hr 0.00 in0.0 mm
01:47 AM 52.7°F11.5°C 49.8°F9.9°C 90% 2.0 mph WNW3.2 kmh WNW 3.0 mph4.8 kmh 29.82 in1009.8 mb 0.00 in0.0 mm 0.00 in/hr0.0 mm/hr 0.00 in0.0 mm
01:42 AM 52.7°F11.5°C 49.8°F9.9°C 90% Calm Calm 2.0 mph3.2 kmh 29.83 in1010.2 mb 0.00 in0.0 mm 0.00 in/hr0.0 mm/hr 0.00 in0.0 mm
01:37 AM 52.7°F11.5°C 49.8°F9.9°C 90% Calm Calm -- 29.83 in1010.2 mb 0.00 in0.0 mm 0.00 in/hr0.0 mm/hr 0.00 in0.0 mm
01:32 AM 52.7°F11.5°C 49.8°F9.9°C 90% Calm Calm 2.0 mph3.2 kmh 29.83 in1010.2 mb 0.00 in0.0 mm 0.00 in/hr0.0 mm/hr 0.00 in0.0 mm
01:27 AM 52.6°F11.4°C 49.7°F9.8°C 90% Calm Calm -- 29.83 in1010.2 mb 0.00 in0.0 mm 0.00 in/hr0.0 mm/hr 0.00 in0.0 mm
01:22 AM 52.6°F11.4°C 49.7°F9.8°C 90% Calm Calm -- 29.83 in1010.2 mb 0.00 in0.0 mm 0.00 in/hr0.0 mm/hr 0.00 in0.0 mm
01:17 AM 52.5°F11.4°C 49.6°F9.8°C 90% Calm Calm 4.0 mph6.4 kmh 29.83 in1010.2 mb 0.00 in0.0 mm 0.00 in/hr0.0 mm/hr 0.00 in0.0 mm
01:12 AM 52.5°F11.4°C 49.6°F9.8°C 90% Calm Calm 3.0 mph4.8 kmh 29.83 in1010.2 mb 0.00 in0.0 mm 0.00 in/hr0.0 mm/hr 0.00 in0.0 mm
01:07 AM 52.4°F11.3°C 49.5°F9.7°C 90% Calm Calm -- 29.83 in1010.2 mb 0.00 in0.0 mm 0.00 in/hr0.0 mm/hr 0.00 in0.0 mm
01:02 AM 52.4°F11.3°C 49.5°F9.7°C 90% Calm Calm -- 29.83 in1010.2 mb 0.00 in0.0 mm 0.00 in/hr0.0 mm/hr 0.00 in0.0 mm
12:57 AM 52.3°F11.3°C 49.4°F9.7°C 90% 1.0 mph WNW1.6 kmh WNW 3.0 mph4.8 kmh 29.83 in1010.2 mb 0.00 in0.0 mm 0.00 in/hr0.0 mm/hr 0.00 in0.0 mm
12:52 AM 52.2°F11.2°C 49.3°F9.6°C 90% Calm Calm 3.0 mph4.8 kmh 29.83 in1010.2 mb 0.00 in0.0 mm 0.00 in/hr0.0 mm/hr 0.00 in0.0 mm
12:47 AM 52.2°F11.2°C 49.3°F9.6°C 90% 1.0 mph W1.6 kmh W 3.0 mph4.8 kmh 29.83 in1010.2 mb 0.00 in0.0 mm 0.00 in/hr0.0 mm/hr 0.00 in0.0 mm
12:42 AM 52.2°F11.2°C 49.3°F9.6°C 90% Calm Calm 2.0 mph3.2 kmh 29.83 in1010.2 mb 0.00 in0.0 mm 0.00 in/hr0.0 mm/hr 0.00 in0.0 mm
12:37 AM 52.2°F11.2°C 49.3°F9.6°C 90% Calm Calm 3.0 mph4.8 kmh 29.83 in1010.2 mb 0.00 in0.0 mm 0.00 in/hr0.0 mm/hr 0.00 in0.0 mm
12:32 AM 52.1°F11.2°C 49.2°F9.6°C 90% Calm Calm 2.0 mph3.2 kmh 29.83 in1010.2 mb 0.00 in0.0 mm 0.00 in/hr0.0 mm/hr 0.00 in0.0 mm
12:27 AM 52.1°F11.2°C 49.2°F9.6°C 90% Calm Calm 2.0 mph3.2 kmh 29.83 in1010.2 mb 0.00 in0.0 mm 0.00 in/hr0.0 mm/hr 0.00 in0.0 mm
12:22 AM 52.1°F11.2°C 49.2°F9.6°C 90% Calm Calm 2.0 mph3.2 kmh 29.83 in1010.2 mb 0.00 in0.0 mm 0.00 in/hr0.0 mm/hr 0.00 in0.0 mm
12:17 AM 52.1°F11.2°C 49.2°F9.6°C 90% Calm Calm 2.0 mph3.2 kmh 29.83 in1010.2 mb 0.00 in0.0 mm 0.00 in/hr0.0 mm/hr 0.00 in0.0 mm
12:12 AM 52.1°F11.2°C 49.2°F9.6°C 90% Calm Calm -- 29.83 in1010.2 mb 0.00 in0.0 mm 0.00 in/hr0.0 mm/hr 0.00 in0.0 mm
12:07 AM 52.1°F11.2°C 49.2°F9.6°C 90% Calm Calm -- 29.83 in1010.2 mb 0.00 in0.0 mm 0.00 in/hr0.0 mm/hr 0.00 in0.0 mm
12:02 AM 52.1°F11.2°C 49.2°F9.6°C 90% Calm Calm -- 29.83 in1010.2 mb 0.00 in0.0 mm 0.00 in/hr0.0 mm/hr 0.00 in0.0 mm